Time;durP1;ratioP1;P1;durP2;ratioP2;P2;SDS_P1;SDS_P2;PMS_P1;PMS_P2;Temp;Humidity;BMP_temperature;BMP_pressure;BME280_temperature;BME280_humidity;BME280_pressure;Samples;Min_cycle;Max_cycle;Signal;HPM_P1;HPM_P2
2023/04/23 04:33:40;;;;;;;;;6.75;4.00;;;;;12.56;68.71;100308.81;5097502;27;45331;-76
2023/04/23 04:36:08;;;;;;;;;3.00;3.00;;;;;12.57;68.16;100310.53;5117822;27;45347;-77
2023/04/23 04:38:36;;;;;;;;;4.00;4.00;;;;;12.54;68.55;100313.41;5099243;27;46222;-76
2023/04/23 04:41:02;;;;;;;;;3.75;3.75;;;;;12.51;68.72;100302.81;5117275;27;45412;-77
2023/04/23 04:43:27;;;;;;;;;4.00;4.00;;;;;12.39;67.99;100277.56;5117547;27;45835;-77
2023/04/23 04:45:53;;;;;;;;;3.00;3.00;;;;;12.54;68.73;100297.28;5117323;27;45980;-77
2023/04/23 04:48:19;;;;;;;;;4.00;3.50;;;;;12.57;68.63;100297.09;5099145;27;45449;-76
2023/04/23 04:50:45;;;;;;;;;3.25;3.25;;;;;12.52;68.35;100291.97;5096296;27;46306;-77
2023/04/23 04:53:11;;;;;;;;;3.50;3.50;;;;;12.40;68.00;100268.56;5107280;27;45338;-77
2023/04/23 04:55:36;;;;;;;;;2.75;2.75;;;;;12.52;68.02;100291.97;5112653;27;45289;-78
2023/04/23 04:58:02;;;;;;;;;4.25;2.75;;;;;12.47;68.25;100274.41;5098817;27;45871;-77
2023/04/23 05:00:29;;;;;;;;;3.25;3.00;;;;;12.51;67.98;100282.19;5117220;27;46337;-79
2023/04/23 05:02:56;;;;;;;;;1.50;1.50;;;;;12.55;67.88;100276.63;5117187;27;45383;-78
2023/04/23 05:05:24;;;;;;;;;3.50;3.50;;;;;12.55;67.83;100282.00;5117172;27;45331;-76
2023/04/23 05:07:49;;;;;;;;;2.00;2.00;;;;;12.50;67.81;100291.22;5117129;27;45489;-77
2023/04/23 05:10:15;;;;;;;;;4.25;4.25;;;;;12.44;67.81;100271.91;5116997;27;45246;-78
2023/04/23 05:12:42;;;;;;;;;3.75;3.75;;;;;12.41;67.67;100270.28;5098740;27;46103;-77
2023/04/23 05:15:12;;;;;;;;;4.50;2.00;;;;;12.51;67.84;100279.50;5117262;27;45495;-77
2023/04/23 05:17:37;;;;;;;;;3.00;1.75;;;;;12.56;67.20;100275.69;5118161;27;46003;-78
2023/04/23 05:20:03;;;;;;;;;2.00;2.00;;;;;12.39;67.26;100250.69;5118311;27;45426;-76
2023/04/23 05:22:29;;;;;;;;;3.00;3.00;;;;;12.51;67.20;100271.44;5117968;27;45341;-77
2023/04/23 05:24:54;;;;;;;;;4.25;2.00;;;;;12.56;67.21;100286.44;5117681;27;45234;-77
2023/04/23 05:27:20;;;;;;;;;2.25;1.75;;;;;12.52;67.65;100283.91;5117818;27;46182;-78
2023/04/23 05:29:45;;;;;;;;;4.75;2.75;;;;;12.44;67.62;100286.22;5116545;27;46749;-76
2023/04/23 05:32:11;;;;;;;;;5.00;2.00;;;;;12.47;67.70;100283.34;5116255;27;45472;-74
2023/04/23 05:34:38;;;;;;;;;3.00;3.00;;;;;12.47;67.46;100280.66;5116673;27;45537;-78
2023/04/23 05:37:05;;;;;;;;;3.00;3.00;;;;;12.50;67.82;100271.56;5097814;27;45408;-77
2023/04/23 05:39:30;;;;;;;;;3.25;2.00;;;;;12.55;67.31;100271.25;5116429;27;46054;-77
2023/04/23 05:41:56;;;;;;;;;4.25;2.50;;;;;12.58;67.38;100266.56;5116013;27;45439;-76
2023/04/23 05:44:23;;;;;;;;;3.00;2.00;;;;;12.60;67.74;100261.06;5116074;27;45474;-78
2023/04/23 05:46:48;;;;;;;;;3.75;2.25;;;;;12.63;67.17;100261.75;5098351;27;45499;-77
2023/04/23 05:49:14;;;;;;;;;5.25;3.00;;;;;12.58;66.94;100242.38;5116256;27;45254;-77
2023/04/23 05:51:39;;;;;;;;;2.25;2.25;;;;;12.65;67.02;100254.47;5109865;27;45409;-77
2023/04/23 05:54:05;;;;;;;;;2.75;2.75;;;;;12.68;67.09;100258.75;5116577;27;45480;-75
2023/04/23 05:56:30;;;;;;;;;2.00;2.00;;;;;12.67;67.12;100266.00;5116460;27;45520;-76
2023/04/23 05:58:55;;;;;;;;;2.00;2.00;;;;;12.66;66.86;100266.97;5116754;27;45343;-78
2023/04/23 06:01:21;;;;;;;;;2.00;2.00;;;;;12.57;66.83;100248.69;5098099;27;45270;-76
2023/04/23 06:03:46;;;;;;;;;3.75;2.75;;;;;12.61;67.58;100252.91;5115751;27;45213;-77
2023/04/23 06:06:12;;;;;;;;;2.00;2.00;;;;;12.60;67.42;100261.06;5114980;27;45477;-76
2023/04/23 06:08:38;;;;;;;;;2.50;2.50;;;;;12.56;67.75;100255.03;5115996;27;46602;-77
2023/04/23 06:11:04;;;;;;;;;2.00;2.00;;;;;12.54;67.92;100256.06;5115687;27;45309;-76
2023/04/23 06:13:29;;;;;;;;;1.75;1.50;;;;;12.52;67.51;100253.47;5116207;27;45351;-77
2023/04/23 06:15:56;;;;;;;;;2.25;2.25;;;;;12.49;67.76;100243.81;5116058;27;45441;-77
2023/04/23 06:18:21;;;;;;;;;2.25;2.25;;;;;12.52;67.77;100250.78;5115887;27;45365;-78
2023/04/23 06:20:47;;;;;;;;;2.75;2.75;;;;;12.62;67.53;100259.16;5097196;27;46058;-77
2023/04/23 06:23:13;;;;;;;;;3.75;2.50;;;;;12.63;68.34;100259.06;5115949;27;45393;-77
2023/04/23 06:25:39;;;;;;;;;4.75;4.00;;;;;12.63;67.91;100255.50;5116092;27;45556;-76
2023/04/23 06:28:04;;;;;;;;;2.00;2.00;;;;;12.69;68.01;100252.44;5115834;27;45982;-78
2023/04/23 06:30:30;;;;;;;;;4.00;2.00;;;;;12.69;68.25;100250.59;5097160;27;45241;-77
2023/04/23 06:32:55;;;;;;;;;3.00;1.25;;;;;12.65;68.15;100238.31;5115503;27;45360;-77
2023/04/23 06:35:20;;;;;;;;;4.50;3.00;;;;;12.73;68.01;100251.28;5115989;27;45475;-77
2023/04/23 06:37:45;;;;;;;;;5.00;3.25;;;;;12.82;68.33;100239.97;5115705;27;45243;-76
2023/04/23 06:40:11;;;;;;;;;4.00;4.00;;;;;12.80;68.31;100242.75;5115437;27;50204;-76
2023/04/23 06:42:36;;;;;;;;;3.00;3.00;;;;;12.82;68.32;100237.28;5115702;27;45310;-79
2023/04/23 06:45:05;;;;;;;;;3.00;2.00;;;;;12.79;69.27;100235.63;5115780;27;45752;-75
2023/04/23 06:47:30;;;;;;;;;2.00;2.00;;;;;12.80;69.41;100244.56;5096786;27;47771;-78
2023/04/23 06:49:58;;;;;;;;;2.50;2.00;;;;;12.71;69.18;100229.88;5115584;27;45322;-78
2023/04/23 06:52:24;;;;;;;;;3.50;3.50;;;;;12.74;69.89;100243.13;5109112;27;45310;-79
2023/04/23 06:54:49;;;;;;;;;5.50;4.00;;;;;12.74;70.48;100229.69;5115870;27;45551;-76
2023/04/23 06:57:15;;;;;;;;;2.75;2.75;;;;;12.69;70.55;100238.97;5096946;27;46698;-81
2023/04/23 06:59:40;;;;;;;;;4.50;4.50;;;;;12.69;70.66;100238.97;5096339;27;45396;-78
2023/04/23 07:02:06;;;;;;;;;4.00;4.00;;;;;12.63;70.86;100234.88;5115402;27;45351;-75
2023/04/23 07:04:31;;;;;;;;;4.00;4.00;;;;;12.59;70.97;100224.41;5115939;27;45616;-78
2023/04/23 07:06:57;;;;;;;;;4.00;4.00;;;;;12.67;71.58;100236.41;5114896;27;45295;-81
2023/04/23 07:09:22;;;;;;;;;4.00;4.00;;;;;12.66;71.98;100225.75;5096690;27;45464;-80
2023/04/23 07:11:48;;;;;;;;;4.25;3.25;;;;;12.71;71.65;100226.31;5118870;27;45231;-81
2023/04/23 07:14:13;;;;;;;;;4.00;4.00;;;;;12.72;72.22;100222.66;5115700;27;45479;-77
2023/04/23 07:16:39;;;;;;;;;6.50;6.50;;;;;12.78;71.46;100227.66;5117310;27;46277;-76
2023/04/23 07:19:04;;;;;;;;;7.00;5.75;;;;;12.80;71.67;100225.72;5119220;27;45303;-75
2023/04/23 07:21:31;;;;;;;;;3.00;3.00;;;;;12.69;72.22;100198.63;5118918;27;45506;-69
2023/04/23 07:24:05;;;;;;;;;4.00;4.00;;;;;12.76;72.83;100213.47;5119164;27;45340;-71
2023/04/23 07:26:34;;;;;;;;;5.00;5.00;;;;;12.75;72.96;100206.34;5118566;27;46240;-70
2023/04/23 07:29:00;;;;;;;;;7.25;4.75;;;;;12.84;72.79;100205.75;5118883;27;45265;-71
2023/04/23 07:31:27;;;;;;;;;5.00;5.00;;;;;12.86;72.47;100210.06;5118666;27;45602;-70
2023/04/23 07:33:53;;;;;;;;;4.00;4.00;;;;;12.75;72.40;100185.69;5100171;27;46088;-68
2023/04/23 07:36:18;;;;;;;;;7.25;5.25;;;;;12.92;72.71;100202.56;5118293;27;45293;-70
2023/04/23 07:38:44;;;;;;;;;4.25;4.25;;;;;12.89;72.80;100190.19;5118632;27;52819;-71
2023/04/23 07:41:09;;;;;;;;;6.25;6.25;;;;;12.94;73.01;100193.41;5118668;27;45527;-70
2023/04/23 07:43:35;;;;;;;;;9.00;6.25;;;;;12.98;72.86;100184.19;5118544;27;45409;-72
2023/04/23 07:46:00;;;;;;;;;4.25;4.25;;;;;12.98;72.43;100178.81;5118333;27;46127;-71
2023/04/23 07:48:25;;;;;;;;;6.50;6.50;;;;;12.96;73.38;100175.34;5118553;27;45302;-72
2023/04/23 07:50:51;;;;;;;;;4.50;4.50;;;;;12.80;73.08;100174.63;5112457;27;45525;-71
2023/04/23 07:53:16;;;;;;;;;6.00;6.00;;;;;12.84;73.65;100195.00;5118536;27;45572;-71
2023/04/23 07:55:41;;;;;;;;;9.00;9.00;;;;;12.78;75.07;100190.00;5109343;27;46285;-72
2023/04/23 07:58:07;;;;;;;;;11.75;8.00;;;;;12.73;74.46;100168.78;5117639;27;45386;-70
2023/04/23 08:00:32;;;;;;;;;10.75;7.25;;;;;12.76;74.89;100176.63;5116647;27;45598;-70
2023/04/23 08:02:58;;;;;;;;;9.00;6.25;;;;;12.76;74.55;100170.41;5086334;27;46915;-72
2023/04/23 08:05:25;;;;;;;;;3.50;3.50;;;;;12.83;74.69;100163.69;5109273;27;46162;-72
2023/04/23 08:07:50;;;;;;;;;8.25;7.00;;;;;12.86;75.02;100142.81;5115604;27;45421;-71
2023/04/23 08:10:15;;;;;;;;;8.25;8.25;;;;;12.94;75.41;100134.22;5117871;27;45235;-71
2023/04/23 08:12:41;;;;;;;;;10.00;10.00;;;;;12.94;74.94;100136.91;5116186;27;45287;-74
2023/04/23 08:15:07;;;;;;;;;8.00;7.75;;;;;13.00;74.83;100127.59;5117277;27;45975;-72
2023/04/23 08:17:32;;;;;;;;;9.00;6.00;;;;;13.06;74.73;100120.00;5117888;27;45671;-76
2023/04/23 08:19:58;;;;;;;;;7.75;7.75;;;;;13.00;74.99;100087.25;5112569;27;46174;-80
2023/04/23 08:22:23;;;;;;;;;8.00;8.00;;;;;13.16;74.77;100096.91;5097756;27;45493;-81
2023/04/23 08:24:48;;;;;;;;;10.00;10.00;;;;;13.09;75.34;100048.97;5099210;27;48012;-77
2023/04/23 08:27:14;;;;;;;;;7.00;6.00;;;;;13.39;75.13;100094.50;5108553;27;45555;-75
2023/04/23 08:29:39;;;;;;;;;4.75;4.75;;;;;13.40;75.23;100067.47;5090815;27;45824;-71
2023/04/23 08:32:04;;;;;;;;;8.50;8.50;;;;;13.48;75.42;100066.94;5097026;27;45503;-73
2023/04/23 08:34:29;;;;;;;;;12.75;7.25;;;;;13.59;75.37;100064.38;5098640;27;46150;-77
2023/04/23 08:36:55;;;;;;;;;10.50;8.25;;;;;13.65;74.98;100066.66;5098853;27;45349;-77
2023/04/23 08:39:20;;;;;;;;;5.25;5.25;;;;;13.71;74.07;100054.56;5116421;27;46047;-72
2023/04/23 08:41:51;;;;;;;;;5.75;5.75;;;;;13.77;74.15;100067.63;5116241;27;45432;-77
2023/04/23 08:44:24;;;;;;;;;8.75;7.50;;;;;13.87;73.24;100048.00;5099804;27;45425;-75
2023/04/23 08:46:52;;;;;;;;;8.25;8.25;;;;;13.77;73.23;100011.94;5095059;27;45486;-77
2023/04/23 08:49:18;;;;;;;;;7.50;7.50;;;;;13.92;73.30;100026.13;5077089;27;45464;-75
2023/04/23 08:51:52;;;;;;;;;9.25;9.25;;;;;13.99;73.45;100020.19;5109226;27;45531;-75
2023/04/23 08:54:24;;;;;;;;;6.25;6.25;;;;;14.03;73.16;100000.13;5103117;27;45515;-75
2023/04/23 08:56:50;;;;;;;;;10.00;7.75;;;;;14.10;73.40;100003.25;5098779;27;45372;-74
2023/04/23 08:59:17;;;;;;;;;9.00;9.00;;;;;14.06;72.88;99990.09;5097793;27;45449;-74
2023/04/23 09:01:43;;;;;;;;;9.75;9.75;;;;;14.19;72.91;100001.75;5097329;27;45769;-74
2023/04/23 09:04:09;;;;;;;;;2.75;2.75;;;;;14.24;72.80;99992.34;5099421;27;45393;-74
2023/04/23 09:06:35;;;;;;;;;6.75;6.75;;;;;14.24;72.72;99978.84;5102478;27;45283;-74
2023/04/23 09:09:01;;;;;;;;;9.25;6.00;;;;;14.23;72.73;99958.25;5098108;27;45870;-75
2023/04/23 09:11:29;;;;;;;;;6.75;6.75;;;;;14.39;72.31;99971.50;5109719;27;45574;-74
2023/04/23 09:13:56;;;;;;;;;9.50;8.25;;;;;14.43;71.65;99956.81;5115951;27;46180;-74
2023/04/23 09:16:21;;;;;;;;;7.00;7.00;;;;;14.51;71.98;99961.66;5095248;27;45546;-74
2023/04/23 09:18:48;;;;;;;;;9.75;7.00;;;;;14.60;71.64;99950.16;5116292;27;45320;-76
2023/04/23 09:21:13;;;;;;;;;7.00;5.00;;;;;14.70;71.11;99945.81;5116912;27;45968;-76
2023/04/23 09:23:40;;;;;;;;;10.00;10.00;;;;;14.81;71.51;99936.88;5116579;27;47729;-73
2023/04/23 09:26:05;;;;;;;;;9.50;9.25;;;;;14.88;70.86;99930.91;5116861;27;45346;-76
2023/04/23 09:28:35;;;;;;;;;7.25;7.25;;;;;14.87;69.90;99914.84;5116630;27;45478;-74
2023/04/23 09:31:04;;;;;;;;;7.25;7.25;;;;;14.93;69.78;99922.47;5116894;27;46208;-73
2023/04/23 09:33:31;;;;;;;;;8.25;8.25;;;;;14.97;69.89;99926.66;5116835;27;46065;-73
2023/04/23 09:35:57;;;;;;;;;9.00;8.50;;;;;14.93;69.08;99914.34;5116604;27;45324;-72
2023/04/23 09:38:23;;;;;;;;;6.75;6.75;;;;;14.93;69.24;99899.03;5117027;27;45340;-74
2023/04/23 09:40:50;;;;;;;;;8.00;8.00;;;;;15.02;68.49;99913.66;5116896;27;45477;-73
2023/04/23 09:43:15;;;;;;;;;7.25;7.25;;;;;15.03;68.11;99899.19;5116732;27;45295;-73
2023/04/23 09:45:48;;;;;;;;;8.50;8.00;;;;;15.03;67.61;99885.69;5116565;27;45480;-73
2023/04/23 09:48:13;;;;;;;;;7.25;7.25;;;;;15.08;67.80;99887.03;5117149;27;45416;-73
2023/04/23 09:50:39;;;;;;;;;3.00;3.00;;;;;15.20;67.61;99901.44;5115177;27;45459;-73
2023/04/23 09:53:07;;;;;;;;;6.50;6.50;;;;;15.28;68.22;99896.28;5111648;27;45356;-74
2023/04/23 09:55:37;;;;;;;;;8.50;8.00;;;;;15.26;66.91;99906.34;5098176;27;45542;-74
2023/04/23 09:58:04;;;;;;;;;8.75;6.75;;;;;15.28;66.86;99912.50;5116700;27;45389;-74
2023/04/23 10:00:37;;;;;;;;;10.50;7.00;;;;;15.23;67.37;99895.75;5116405;27;45359;-73
2023/04/23 10:03:05;;;;;;;;;10.50;8.50;;;;;15.18;67.08;99886.31;5116639;27;46300;-75
2023/04/23 10:05:31;;;;;;;;;9.00;6.50;;;;;15.10;66.50;99882.38;5116174;27;45370;-73
2023/04/23 10:07:56;;;;;;;;;6.50;6.50;;;;;15.08;66.88;99870.84;5116205;27;45254;-74
2023/04/23 10:10:22;;;;;;;;;7.00;7.00;;;;;14.92;66.33;99837.94;5116172;27;45579;-74
2023/04/23 10:12:50;;;;;;;;;8.00;5.00;;;;;14.99;66.50;99855.34;5116206;27;46208;-73
2023/04/23 10:15:16;;;;;;;;;6.25;6.25;;;;;14.98;66.70;99852.78;5116061;27;45387;-73
2023/04/23 10:17:41;;;;;;;;;7.75;6.25;;;;;15.01;66.56;99866.91;5116348;27;45496;-73
2023/04/23 10:20:08;;;;;;;;;6.75;6.75;;;;;14.95;66.99;99845.81;5116138;27;45524;-74
2023/04/23 10:22:36;;;;;;;;;6.50;6.50;;;;;15.01;66.03;99822.84;5116072;27;46153;-74
2023/04/23 10:25:10;;;;;;;;;7.00;5.00;;;;;15.11;66.08;99832.81;5116004;27;45296;-74
2023/04/23 10:27:40;;;;;;;;;5.25;5.25;;;;;15.23;65.91;99830.09;5116438;27;45507;-75
2023/04/23 10:30:06;;;;;;;;;4.00;4.00;;;;;15.25;64.81;99810.09;5116160;27;45375;-77
2023/04/23 10:32:35;;;;;;;;;5.00;5.00;;;;;15.31;65.04;99789.88;5115812;27;46129;-73
2023/04/23 10:35:00;;;;;;;;;6.00;4.50;;;;;15.32;64.89;99807.75;5115541;27;45402;-75
2023/04/23 10:37:27;;;;;;;;;2.75;2.75;;;;;15.26;65.21;99808.25;5115895;27;45532;-75
2023/04/23 10:39:54;;;;;;;;;6.00;6.00;;;;;15.29;64.89;99810.72;5115492;27;45554;-75
2023/04/23 10:42:21;;;;;;;;;7.00;7.00;;;;;15.20;65.38;99785.31;5115738;27;45401;-75
2023/04/23 10:44:47;;;;;;;;;8.00;6.00;;;;;15.23;64.54;99786.91;5115549;27;45336;-75
2023/04/23 10:47:16;;;;;;;;;5.00;5.00;;;;;15.12;64.26;99760.78;5116115;27;45342;-75
2023/04/23 10:49:43;;;;;;;;;5.75;5.00;;;;;15.25;64.51;99785.81;5115452;27;45328;-74
2023/04/23 10:52:09;;;;;;;;;3.50;3.50;;;;;15.17;64.19;99760.41;5108746;27;46085;-75
2023/04/23 10:54:36;;;;;;;;;6.50;5.00;;;;;15.21;64.48;99772.69;5116030;27;45376;-75
2023/04/23 10:57:03;;;;;;;;;4.75;4.75;;;;;15.20;64.67;99765.56;5115792;27;45384;-74
2023/04/23 10:59:30;;;;;;;;;3.75;3.75;;;;;15.18;64.27;99762.97;5115666;27;45508;-75
2023/04/23 11:02:09;;;;;;;;;4.00;4.00;;;;;15.10;64.41;99743.84;5097123;27;47553;-74
2023/04/23 11:04:40;;;;;;;;;5.00;3.50;;;;;15.07;64.67;99753.03;5097096;27;45200;-75
2023/04/23 11:07:10;;;;;;;;;6.00;6.00;;;;;14.88;65.09;99723.13;5115328;27;45448;-74
2023/04/23 11:09:41;;;;;;;;;4.50;4.50;;;;;14.97;65.06;99726.94;5096914;27;46195;-75
2023/04/23 11:12:12;;;;;;;;;3.25;3.25;;;;;14.95;64.92;99723.47;5115172;27;46126;-76
2023/04/23 11:14:46;;;;;;;;;6.00;5.00;;;;;14.94;64.87;99719.94;5115340;27;45341;-74
2023/04/23 11:17:13;;;;;;;;;4.75;4.75;;;;;14.87;65.11;99720.53;5115885;27;45419;-74
2023/04/23 11:19:40;;;;;;;;;4.00;4.00;;;;;14.77;65.56;99698.81;5115351;27;45349;-75
2023/04/23 11:22:19;;;;;;;;;3.50;3.00;;;;;14.80;66.34;99703.13;5115353;27;45807;-73
2023/04/23 11:24:45;;;;;;;;;2.00;2.00;;;;;14.75;66.96;99711.56;5112743;27;45337;-75
2023/04/23 11:27:11;;;;;;;;;3.75;3.75;;;;;14.74;67.21;99683.72;5094686;27;45470;-74
2023/04/23 11:29:39;;;;;;;;;3.00;3.00;;;;;14.76;66.67;99680.91;5094442;27;45285;-73
2023/04/23 11:32:09;;;;;;;;;4.75;4.75;;;;;14.69;67.04;99661.66;5094444;27;46163;-73
2023/04/23 11:34:36;;;;;;;;;3.25;3.25;;;;;14.73;67.14;99678.44;5094436;27;45284;-75
2023/04/23 11:37:02;;;;;;;;;5.25;3.25;;;;;14.65;67.23;99660.19;5094383;27;45473;-76
2023/04/23 11:39:27;;;;;;;;;4.25;4.25;;;;;14.66;67.67;99667.31;5094376;27;45598;-75
2023/04/23 11:41:53;;;;;;;;;3.50;3.50;;;;;14.60;68.75;99664.25;5094857;27;45350;-75
2023/04/23 11:44:20;;;;;;;;;5.00;5.00;;;;;14.56;70.32;99666.31;5093172;27;45456;-76
2023/04/23 11:46:47;;;;;;;;;2.25;1.25;;;;;14.40;71.05;99663.09;5115207;27;45540;-74
2023/04/23 11:49:13;;;;;;;;;10.25;8.50;;;;;14.35;72.10;99657.19;5096854;27;45462;-75
2023/04/23 11:51:43;;;;;;;;;4.00;4.00;;;;;14.28;72.51;99646.03;5105869;27;46989;-75
2023/04/23 11:54:09;;;;;;;;;4.75;4.75;;;;;14.24;72.51;99646.38;5099619;27;45377;-74
2023/04/23 11:56:36;;;;;;;;;6.00;4.75;;;;;14.17;73.68;99696.38;5115249;27;45333;-73
2023/04/23 11:59:02;;;;;;;;;3.00;3.00;;;;;14.12;74.63;99694.00;5114664;27;45437;-76
2023/04/23 12:01:45;;;;;;;;;4.25;3.50;;;;;14.12;74.17;99682.41;5096896;27;45578;-76
2023/04/23 12:04:12;;;;;;;;;3.50;2.00;;;;;14.10;73.14;99696.00;5118290;27;45258;-75
2023/04/23 12:06:41;;;;;;;;;1.50;1.50;;;;;14.14;74.39;99689.38;5118055;27;45226;-73
2023/04/23 12:09:06;;;;;;;;;3.75;2.00;;;;;13.99;75.01;99679.78;5118236;27;45541;-74
2023/04/23 12:11:34;;;;;;;;;4.75;2.75;;;;;14.03;75.48;99700.97;5118049;27;45474;-74
2023/04/23 12:14:00;;;;;;;;;2.00;1.00;;;;;14.01;75.14;99702.09;5118242;27;45465;-77
2023/04/23 12:16:38;;;;;;;;;4.75;1.00;;;;;14.01;74.10;99694.88;5118231;27;45282;-74
2023/04/23 12:19:07;;;;;;;;;2.00;2.00;;;;;13.95;74.57;99698.00;5118225;27;45469;-75
2023/04/23 12:21:33;;;;;;;;;1.00;1.00;;;;;13.97;74.27;99709.53;5099438;27;45413;-76
2023/04/23 12:23:58;;;;;;;;;0.00;0.00;;;;;13.98;74.04;99708.56;5118176;27;45370;-75
2023/04/23 12:26:25;;;;;;;;;0.00;0.00;;;;;14.02;73.88;99707.38;5118299;27;45754;-76
2023/04/23 12:28:52;;;;;;;;;1.25;1.00;;;;;14.06;73.73;99699.88;5099528;27;45349;-75
2023/04/23 12:31:28;;;;;;;;;1.00;1.00;;;;;13.92;73.49;99709.03;5117483;27;46238;-75
2023/04/23 12:34:05;;;;;;;;;1.75;1.00;;;;;14.01;73.41;99704.78;5099619;27;45337;-74
2023/04/23 12:36:31;;;;;;;;;0.00;0.00;;;;;14.08;73.21;99699.78;5117432;27;45338;-74
2023/04/23 12:39:24;;;;;;;;;0.00;0.00;;;;;14.23;71.78;99698.59;5117913;27;45335;-75
2023/04/23 12:41:55;;;;;;;;;2.00;0.00;;;;;14.27;72.33;99724.34;5117712;27;45188;-76
2023/04/23 12:44:21;;;;;;;;;0.00;0.00;;;;;14.25;72.58;99720.91;5117652;27;45231;-75
2023/04/23 12:46:53;;;;;;;;;2.00;0.25;;;;;14.12;73.06;99693.19;5117568;27;45252;-76
2023/04/23 12:49:18;;;;;;;;;0.00;0.00;;;;;14.19;72.45;99726.78;5117442;27;45445;-76
2023/04/23 12:51:43;;;;;;;;;0.00;0.00;;;;;14.09;72.58;99714.97;5109859;27;46482;-75
2023/04/23 12:54:10;;;;;;;;;1.50;0.00;;;;;14.11;73.71;99724.66;5113989;27;45327;-75
2023/04/23 12:56:36;;;;;;;;;0.00;0.00;;;;;13.99;72.72;99749.84;5107866;27;45306;-74
2023/04/23 12:59:03;;;;;;;;;0.00;0.00;;;;;13.95;73.18;99743.00;5117383;27;45449;-75
2023/04/23 13:01:29;;;;;;;;;0.00;0.00;;;;;14.20;73.69;99750.91;5117609;27;46207;-76
2023/04/23 13:03:55;;;;;;;;;1.50;0.00;;;;;14.54;72.63;99746.50;5098915;27;45955;-74
2023/04/23 13:06:20;;;;;;;;;0.00;0.00;;;;;14.74;71.42;99756.56;5117312;27;45389;-76
2023/04/23 13:08:46;;;;;;;;;0.00;0.00;;;;;14.70;69.96;99741.63;5117294;27;45344;-75
2023/04/23 13:11:11;;;;;;;;;0.00;0.00;;;;;14.22;69.60;99692.34;5098900;27;47071;-75
2023/04/23 13:13:36;;;;;;;;;0.00;0.00;;;;;14.64;68.74;99763.66;5116523;27;45317;-75
2023/04/23 13:16:02;;;;;;;;;0.00;0.00;;;;;14.59;67.64;99783.91;5098947;27;45501;-75
2023/04/23 13:18:27;;;;;;;;;0.00;0.00;;;;;14.19;68.22;99768.06;5117360;27;45589;-74
2023/04/23 13:20:52;;;;;;;;;0.00;0.00;;;;;14.22;69.03;99759.72;5117257;27;46264;-75
2023/04/23 13:23:18;;;;;;;;;0.00;0.00;;;;;14.26;69.55;99793.56;5117110;27;45395;-75
2023/04/23 13:25:43;;;;;;;;;0.00;0.00;;;;;14.15;69.37;99796.22;5117447;27;45337;-75
2023/04/23 13:28:08;;;;;;;;;0.00;0.00;;;;;14.17;70.14;99815.84;5117126;27;45568;-75
2023/04/23 13:30:34;;;;;;;;;0.00;0.00;;;;;14.07;69.51;99803.16;5117200;27;46006;-75
2023/04/23 13:32:59;;;;;;;;;0.00;0.00;;;;;14.02;68.49;99811.59;5116815;27;45483;-76
2023/04/23 13:35:24;;;;;;;;;0.00;0.00;;;;;14.02;68.46;99809.78;5117374;27;45373;-75
2023/04/23 13:37:50;;;;;;;;;0.00;0.00;;;;;14.18;68.37;99824.78;5116580;27;45546;-77
2023/04/23 13:40:15;;;;;;;;;0.00;0.00;;;;;14.25;68.21;99836.81;5117228;27;45559;-76
2023/04/23 13:42:40;;;;;;;;;0.00;0.00;;;;;14.20;67.05;99839.03;5113576;27;45216;-75
2023/04/23 13:45:06;;;;;;;;;0.00;0.00;;;;;14.13;67.13;99859.28;5107172;27;45337;-75
2023/04/23 13:47:33;;;;;;;;;2.00;0.00;;;;;14.21;67.72;99846.09;5098915;27;47368;-75
2023/04/23 13:50:04;;;;;;;;;0.00;0.00;;;;;14.27;66.11;99853.75;5117982;27;46486;-76
2023/04/23 13:52:30;;;;;;;;;0.00;0.00;;;;;14.43;65.67;99837.31;5108603;27;45397;-75
2023/04/23 13:54:56;;;;;;;;;1.00;0.00;;;;;15.04;62.81;99844.22;5116921;27;45393;-74
2023/04/23 13:57:22;;;;;;;;;0.00;0.00;;;;;15.55;61.08;99855.44;5116517;27;45673;-75
2023/04/23 13:59:48;;;;;;;;;1.00;0.00;;;;;16.21;60.81;99851.75;5097993;27;47309;-74
2023/04/23 14:02:13;;;;;;;;;0.00;0.00;;;;;16.79;59.28;99838.75;5116470;27;45248;-75
2023/04/23 14:04:38;;;;;;;;;0.00;0.00;;;;;16.92;56.96;99852.94;5098441;27;45309;-74
2023/04/23 14:07:04;;;;;;;;;0.00;0.00;;;;;17.27;56.94;99840.88;5115596;27;56251;-73
2023/04/23 14:09:29;;;;;;;;;0.00;0.00;;;;;17.49;56.01;99829.00;5116602;27;46476;-75
2023/04/23 14:11:55;;;;;;;;;0.00;0.00;;;;;17.61;53.34;99844.16;5116579;27;45285;-74
2023/04/23 14:14:20;;;;;;;;;0.00;0.00;;;;;17.17;52.81;99829.16;5116788;27;45587;-76
2023/04/23 14:16:46;;;;;;;;;0.00;0.00;;;;;16.87;53.98;99852.47;5116512;27;45417;-76
2023/04/23 14:19:11;;;;;;;;;0.00;0.00;;;;;16.66;54.64;99865.16;5116845;27;46123;-74
2023/04/23 14:21:36;;;;;;;;;0.00;0.00;;;;;16.54;54.77;99904.03;5116532;27;45267;-74
2023/04/23 14:24:16;;;;;;;;;0.00;0.00;;;;;16.45;55.44;99862.38;5116906;27;45402;-74
2023/04/23 14:26:43;;;;;;;;;1.00;0.00;;;;;16.40;55.95;99866.44;5115697;27;45435;-74
2023/04/23 14:29:21;;;;;;;;;0.00;0.00;;;;;16.24;55.61;99878.56;5116298;27;45249;-75
2023/04/23 14:31:46;;;;;;;;;0.00;0.00;;;;;16.14;56.40;99866.78;5116294;27;45432;-76
2023/04/23 14:34:13;;;;;;;;;2.00;0.00;;;;;16.24;56.92;99870.44;5116580;27;45300;-75
2023/04/23 14:36:39;;;;;;;;;0.75;0.00;;;;;16.28;56.17;99863.78;5116031;27;45521;-75
2023/04/23 14:39:04;;;;;;;;;0.00;0.00;;;;;16.71;56.12;99868.31;5115919;27;45392;-74
2023/04/23 14:41:33;;;;;;;;;0.00;0.00;;;;;17.28;54.24;99865.13;5116027;27;45333;-77
2023/04/23 14:44:02;;;;;;;;;0.75;0.00;;;;;17.65;52.84;99861.91;5115991;27;45241;-74
2023/04/23 14:46:27;;;;;;;;;0.00;0.00;;;;;17.73;52.39;99873.78;5115584;27;45350;-75
2023/04/23 14:48:53;;;;;;;;;0.00;0.00;;;;;17.60;51.82;99842.47;5115664;27;45355;-75
2023/04/23 14:51:18;;;;;;;;;0.00;0.00;;;;;17.89;52.07;99862.41;5108916;27;45450;-77
2023/04/23 14:53:44;;;;;;;;;0.00;0.00;;;;;18.04;51.47;99852.88;5115906;27;45450;-76
2023/04/23 14:56:10;;;;;;;;;0.00;0.00;;;;;18.02;50.94;99860.31;5115641;27;45582;-74
2023/04/23 14:58:35;;;;;;;;;0.00;0.00;;;;;18.04;50.82;99868.28;5115797;27;45340;-76
2023/04/23 15:01:01;;;;;;;;;0.00;0.00;;;;;18.06;51.39;99859.03;5115720;27;45240;-77
2023/04/23 15:03:26;;;;;;;;;0.50;0.50;;;;;18.40;51.49;99866.78;5115941;27;45291;-75
2023/04/23 15:05:52;;;;;;;;;0.00;0.00;;;;;18.92;50.14;99864.69;5114949;27;45458;-75
2023/04/23 15:08:17;;;;;;;;;0.00;0.00;;;;;19.57;48.69;99853.81;5115432;27;46454;-78
2023/04/23 15:10:43;;;;;;;;;1.00;0.00;;;;;20.06;46.96;99850.84;5115389;27;45251;-76
2023/04/23 15:13:14;;;;;;;;;0.00;0.00;;;;;20.69;46.08;99849.81;5115647;27;45319;-75
2023/04/23 15:15:47;;;;;;;;;0.00;0.00;;;;;21.28;45.42;99850.13;5115179;27;45297;-75
2023/04/23 15:18:13;;;;;;;;;0.00;0.00;;;;;21.54;42.72;99859.16;5115266;27;45401;-74
2023/04/23 15:20:39;;;;;;;;;0.00;0.00;;;;;21.41;43.33;99847.84;5115255;27;45507;-76
2023/04/23 15:23:04;;;;;;;;;0.00;0.00;;;;;21.59;44.12;99842.31;5115364;27;45509;-76
2023/04/23 15:25:32;;;;;;;;;0.00;0.00;;;;;21.47;41.80;99837.13;5115386;27;45631;-76
2023/04/23 15:27:58;;;;;;;;;0.00;0.00;;;;;20.94;42.54;99834.53;5114865;27;45416;-76
2023/04/23 15:30:26;;;;;;;;;0.00;0.00;;;;;20.50;44.23;99836.38;5115278;27;45465;-77
2023/04/23 15:32:56;;;;;;;;;0.00;0.00;;;;;20.33;44.63;99826.31;5114732;27;45385;-70
2023/04/23 15:35:25;;;;;;;;;0.00;0.00;;;;;20.21;44.81;99820.25;5114578;27;45457;-73
2023/04/23 15:37:53;;;;;;;;;1.25;0.00;;;;;19.91;44.56;99832.31;5116728;27;45343;-74
2023/04/23 15:40:19;;;;;;;;;0.00;0.00;;;;;19.40;45.82;99818.34;5118497;27;45384;-75
2023/04/23 15:42:44;;;;;;;;;1.75;0.00;;;;;19.16;46.43;99832.47;5118719;27;45427;-73
2023/04/23 15:45:10;;;;;;;;;0.00;0.00;;;;;18.94;46.91;99852.69;5119077;27;45539;-76
2023/04/23 15:47:37;;;;;;;;;0.00;0.00;;;;;18.92;47.58;99840.22;5106140;27;47077;-77
2023/04/23 15:50:06;;;;;;;;;0.00;0.00;;;;;19.11;47.11;99842.91;5126014;27;45360;-76
2023/04/23 15:52:32;;;;;;;;;1.00;0.00;;;;;19.16;47.02;99843.31;5107194;27;45511;-76
2023/04/23 15:54:58;;;;;;;;;0.00;0.00;;;;;19.05;47.56;99847.09;5122104;27;45433;-75
2023/04/23 15:57:23;;;;;;;;;0.00;0.00;;;;;19.00;48.19;99841.22;5129114;27;46695;-77
2023/04/23 15:59:49;;;;;;;;;1.75;0.00;;;;;18.85;48.13;99854.41;5125454;27;45410;-75